createdAt,value
2019-02-24T00:01:51.748Z,11.97
2019-02-24T00:04:20.695Z,13.72
2019-02-24T00:06:49.526Z,12.07
2019-02-24T00:09:18.566Z,11.35
2019-02-24T00:11:47.334Z,11.55
2019-02-24T00:14:16.148Z,11.88
2019-02-24T00:16:45.027Z,11.45
2019-02-24T00:19:13.808Z,13.62
2019-02-24T00:21:42.732Z,13.00
2019-02-24T00:24:11.767Z,11.93
2019-02-24T00:26:40.544Z,12.60
2019-02-24T00:29:09.644Z,9.50
2019-02-24T00:31:38.519Z,10.15
2019-02-24T00:34:07.323Z,9.55
2019-02-24T00:36:36.135Z,10.10
2019-02-24T00:39:05.663Z,9.68
2019-02-24T00:41:34.549Z,10.00
2019-02-24T00:44:03.866Z,8.75
2019-02-24T00:46:32.734Z,10.18
2019-02-24T00:49:01.807Z,10.40
2019-02-24T00:51:30.570Z,11.03
2019-02-24T00:53:59.386Z,11.75
2019-02-24T00:56:28.232Z,11.48
2019-02-24T00:58:57.036Z,10.50
2019-02-24T01:01:26.210Z,8.83
2019-02-24T01:03:55.008Z,7.95
2019-02-24T01:06:23.815Z,8.98
2019-02-24T01:08:52.668Z,8.10
2019-02-24T01:11:21.448Z,8.45
2019-02-24T01:13:50.240Z,6.90
2019-02-24T01:16:19.031Z,8.13
2019-02-24T01:18:47.860Z,8.70
2019-02-24T01:21:16.677Z,8.73
2019-02-24T01:23:45.441Z,8.60
2019-02-24T01:26:14.277Z,10.72
2019-02-24T01:28:43.077Z,8.43
2019-02-24T01:31:13.413Z,9.48
2019-02-24T01:33:42.333Z,7.87
2019-02-24T01:36:11.126Z,8.60
2019-02-24T01:38:39.975Z,8.20
2019-02-24T01:41:08.772Z,8.95
2019-02-24T01:43:37.630Z,8.95
2019-02-24T01:46:06.440Z,8.58
2019-02-24T01:48:35.239Z,8.40
2019-02-24T01:51:04.047Z,9.13
2019-02-24T01:53:32.842Z,9.10
2019-02-24T01:56:01.682Z,10.75
2019-02-24T01:58:35.112Z,11.25
2019-02-24T02:01:01.157Z,11.97
2019-02-24T02:03:30.006Z,12.13
2019-02-24T02:05:58.818Z,13.15
2019-02-24T02:08:27.746Z,12.20
2019-02-24T02:10:56.522Z,13.22
2019-02-24T02:13:25.391Z,13.28
2019-02-24T02:15:54.224Z,12.23
2019-02-24T02:18:23.297Z,11.63
2019-02-24T02:20:52.104Z,11.68
2019-02-24T02:23:20.851Z,12.47
2019-02-24T02:25:49.664Z,13.70
2019-02-24T02:28:18.492Z,11.60
2019-02-24T02:30:47.401Z,9.90
2019-02-24T02:33:16.274Z,8.33
2019-02-24T02:35:45.350Z,10.30
2019-02-24T02:38:14.244Z,10.40
2019-02-24T02:40:43.133Z,8.53
2019-02-24T02:43:11.946Z,8.68
2019-02-24T02:45:40.934Z,8.35
2019-02-24T02:48:09.754Z,8.63
2019-02-24T02:50:38.614Z,8.88
2019-02-24T02:53:07.567Z,9.85
2019-02-24T02:55:38.396Z,10.75
2019-02-24T02:58:07.169Z,9.18
2019-02-24T03:00:36.246Z,9.90
2019-02-24T03:03:05.467Z,10.85
2019-02-24T03:05:34.269Z,11.10
2019-02-24T03:08:11.327Z,10.48
2019-02-24T03:10:40.280Z,11.40
2019-02-24T03:13:09.152Z,11.38
2019-02-24T03:15:38.117Z,11.38
2019-02-24T03:18:06.887Z,11.57
2019-02-24T03:20:36.207Z,10.50
2019-02-24T03:23:05.246Z,9.15
2019-02-24T03:25:34.034Z,9.25
2019-02-24T03:28:02.934Z,8.55
2019-02-24T03:30:31.853Z,6.50
2019-02-24T03:33:00.673Z,6.60
2019-02-24T03:35:29.657Z,6.85
2019-02-24T03:37:58.522Z,6.90
2019-02-24T03:40:27.332Z,7.37
2019-02-24T03:42:56.291Z,6.70
2019-02-24T03:45:25.176Z,6.92
2019-02-24T03:47:54.090Z,7.83
2019-02-24T03:50:22.883Z,6.83
2019-02-24T03:52:51.726Z,7.35
2019-02-24T03:55:20.758Z,8.43
2019-02-24T03:57:49.759Z,7.87
2019-02-24T04:00:18.521Z,8.05
2019-02-24T04:02:47.413Z,7.33
2019-02-24T04:05:16.312Z,7.83
2019-02-24T04:07:45.404Z,8.78
2019-02-24T04:10:14.421Z,8.58
2019-02-24T04:12:43.394Z,7.15
2019-02-24T04:15:12.487Z,8.50
2019-02-24T04:17:41.474Z,7.53
2019-02-24T04:20:11.541Z,7.45
2019-02-24T04:22:40.416Z,8.28
2019-02-24T04:25:09.202Z,7.33
2019-02-24T04:27:37.991Z,7.30
2019-02-24T04:30:06.893Z,6.30
2019-02-24T04:32:35.745Z,7.90
2019-02-24T04:35:04.791Z,7.47
2019-02-24T04:37:33.687Z,7.72
2019-02-24T04:40:02.521Z,6.83
2019-02-24T04:42:31.409Z,7.78
2019-02-24T04:45:00.302Z,7.72
2019-02-24T04:47:29.470Z,7.30
2019-02-24T04:49:58.587Z,6.72
2019-02-24T04:52:27.706Z,8.10
2019-02-24T04:54:56.529Z,6.85
2019-02-24T04:57:25.426Z,8.15
2019-02-24T04:59:54.394Z,7.20
2019-02-24T05:02:23.293Z,8.28
2019-02-24T05:04:52.230Z,7.83
2019-02-24T05:07:21.070Z,7.05
2019-02-24T05:09:49.993Z,6.85
2019-02-24T05:12:18.899Z,7.65
2019-02-24T05:14:47.782Z,7.37
2019-02-24T05:17:16.720Z,6.90
2019-02-24T05:19:45.527Z,7.75
2019-02-24T05:22:14.517Z,7.00
2019-02-24T05:24:43.353Z,6.65
2019-02-24T05:27:12.211Z,8.53
2019-02-24T05:29:46.003Z,6.97
2019-02-24T05:32:11.741Z,8.20
2019-02-24T05:34:40.537Z,6.90
2019-02-24T05:37:09.375Z,7.55
2019-02-24T05:39:38.231Z,7.55
2019-02-24T05:42:07.049Z,7.60
2019-02-24T05:44:35.919Z,7.55
2019-02-24T05:47:05.003Z,7.70
2019-02-24T05:49:34.073Z,8.20
2019-02-24T05:52:03.063Z,8.08
2019-02-24T05:54:33.797Z,7.53
2019-02-24T05:57:02.646Z,9.90
2019-02-24T05:59:31.708Z,8.50
2019-02-24T06:02:00.555Z,8.00
2019-02-24T06:04:29.911Z,8.38
2019-02-24T06:06:58.819Z,9.40
2019-02-24T06:09:27.631Z,9.50
2019-02-24T06:11:56.434Z,8.45
2019-02-24T06:14:25.351Z,9.20
2019-02-24T06:16:54.260Z,9.60
2019-02-24T06:19:23.127Z,9.88
2019-02-24T06:21:51.983Z,9.68
2019-02-24T06:24:20.832Z,10.03
2019-02-24T06:26:49.738Z,9.20
2019-02-24T06:29:18.656Z,9.25
2019-02-24T06:31:47.503Z,11.40
2019-02-24T06:34:16.331Z,8.95
2019-02-24T06:36:45.251Z,9.10
2019-02-24T06:39:14.575Z,9.15
2019-02-24T06:41:43.490Z,7.12
2019-02-24T06:44:12.407Z,9.10
2019-02-24T06:46:41.218Z,9.53
2019-02-24T06:49:10.004Z,8.15
2019-02-24T06:51:38.797Z,9.70
2019-02-24T06:54:07.753Z,7.95
2019-02-24T06:56:36.502Z,7.97
2019-02-24T06:59:05.298Z,9.03
2019-02-24T07:01:34.087Z,8.35
2019-02-24T07:04:02.852Z,9.30
2019-02-24T07:06:31.627Z,7.78
2019-02-24T07:09:00.477Z,8.75
2019-02-24T07:11:29.391Z,9.48
2019-02-24T07:13:58.441Z,10.08
2019-02-24T07:16:28.809Z,9.40
2019-02-24T07:18:57.695Z,8.55
2019-02-24T07:21:26.493Z,7.85
2019-02-24T07:23:55.307Z,9.23
2019-02-24T07:26:24.100Z,8.25
2019-02-24T07:28:52.947Z,8.78
2019-02-24T07:31:21.745Z,8.18
2019-02-24T07:33:50.563Z,8.05
2019-02-24T07:36:19.489Z,8.28
2019-02-24T07:38:48.332Z,8.10
2019-02-24T07:41:17.369Z,8.23
2019-02-24T07:43:46.448Z,8.88
2019-02-24T07:46:15.265Z,9.05
2019-02-24T07:48:44.211Z,10.18
2019-02-24T07:51:13.467Z,9.78
2019-02-24T07:53:42.278Z,9.35
2019-02-24T07:56:11.187Z,9.90
2019-02-24T07:58:40.005Z,8.85
2019-02-24T08:01:08.793Z,8.65
2019-02-24T08:03:37.829Z,8.95
2019-02-24T08:06:06.649Z,9.00
2019-02-24T08:08:35.480Z,9.85
2019-02-24T08:11:04.323Z,9.35
2019-02-24T08:13:33.133Z,9.93
2019-02-24T08:16:04.439Z,9.15
2019-02-24T08:18:33.263Z,10.53
2019-02-24T08:21:02.395Z,9.88
2019-02-24T08:23:31.285Z,10.00
2019-02-24T08:26:00.159Z,10.08
2019-02-24T08:28:29.039Z,9.13
2019-02-24T08:30:58.152Z,10.32
2019-02-24T08:33:27.035Z,8.85
2019-02-24T08:35:55.838Z,10.43
2019-02-24T08:38:24.717Z,9.78
2019-02-24T08:40:55.122Z,11.08
2019-02-24T08:43:24.075Z,9.97
2019-02-24T08:45:52.982Z,10.23
2019-02-24T08:48:22.235Z,8.93
2019-02-24T08:50:51.153Z,8.23
2019-02-24T08:53:20.447Z,8.88
2019-02-24T08:55:49.314Z,9.15
2019-02-24T08:58:18.753Z,8.35
2019-02-24T09:00:50.947Z,9.05
2019-02-24T09:03:18.409Z,9.53
2019-02-24T09:05:47.445Z,9.98
2019-02-24T09:08:16.316Z,8.90
2019-02-24T09:10:45.192Z,9.48
2019-02-24T09:13:14.146Z,9.75
2019-02-24T09:15:42.966Z,10.93
2019-02-24T09:18:11.834Z,9.35
2019-02-24T09:20:40.711Z,9.08
2019-02-24T09:23:09.584Z,8.88
2019-02-24T09:25:38.473Z,9.90
2019-02-24T09:28:07.285Z,7.83
2019-02-24T09:30:36.157Z,9.50
2019-02-24T09:33:05.016Z,10.00
2019-02-24T09:35:33.933Z,9.45
2019-02-24T09:38:02.744Z,9.05
2019-02-24T09:40:32.049Z,10.05
2019-02-24T09:43:01.011Z,9.57
2019-02-24T09:45:31.505Z,9.70
2019-02-24T09:48:00.748Z,8.83
2019-02-24T09:50:30.856Z,10.10
2019-02-24T09:52:59.664Z,9.57
2019-02-24T09:55:28.507Z,10.07
2019-02-24T09:57:57.328Z,8.93
2019-02-24T10:00:26.333Z,8.63
2019-02-24T10:02:55.282Z,8.80
2019-02-24T10:05:24.085Z,8.47
2019-02-24T10:07:53.167Z,8.83
2019-02-24T10:10:22.206Z,9.50
2019-02-24T10:12:51.085Z,9.53
2019-02-24T10:15:19.933Z,8.10
2019-02-24T10:17:48.748Z,7.37
2019-02-24T10:20:17.646Z,8.60
2019-02-24T10:22:46.528Z,7.60
2019-02-24T10:25:15.443Z,8.60
2019-02-24T10:27:44.258Z,8.57
2019-02-24T10:30:13.202Z,9.20
2019-02-24T10:32:42.017Z,9.97
2019-02-24T10:35:11.121Z,9.70
2019-02-24T10:37:39.995Z,9.87
2019-02-24T10:40:12.346Z,9.50
2019-02-24T10:42:41.464Z,9.23
2019-02-24T10:45:11.567Z,9.08
2019-02-24T10:47:40.512Z,8.80
2019-02-24T10:50:11.587Z,8.73
2019-02-24T10:52:40.464Z,7.90
2019-02-24T10:55:09.530Z,7.83
2019-02-24T10:57:38.514Z,7.83
2019-02-24T11:00:09.729Z,7.73
2019-02-24T11:02:38.649Z,8.60
2019-02-24T11:05:07.832Z,7.50
2019-02-24T11:07:36.693Z,7.10
2019-02-24T11:10:06.653Z,7.10
2019-02-24T11:12:35.573Z,7.60
2019-02-24T11:15:05.700Z,8.50
2019-02-24T11:17:34.521Z,7.20
2019-02-24T11:20:03.519Z,7.30
2019-02-24T11:22:32.361Z,7.13
2019-02-24T11:25:01.462Z,7.53
2019-02-24T11:27:30.781Z,7.00
2019-02-24T11:29:59.793Z,7.50
2019-02-24T11:32:28.797Z,7.20
2019-02-24T11:34:57.646Z,6.93
2019-02-24T11:37:26.421Z,6.77
2019-02-24T11:39:55.210Z,7.03
2019-02-24T11:42:24.007Z,6.73
2019-02-24T11:44:53.280Z,6.70
2019-02-24T11:47:22.101Z,7.07
2019-02-24T11:49:51.184Z,5.47
2019-02-24T11:52:20.118Z,6.23
2019-02-24T11:54:48.949Z,7.27
2019-02-24T11:57:17.907Z,6.67
2019-02-24T11:59:47.998Z,6.20
2019-02-24T12:02:16.848Z,6.10
2019-02-24T12:04:46.161Z,5.20
2019-02-24T12:07:15.183Z,5.60
2019-02-24T12:09:43.992Z,4.10
2019-02-24T12:12:13.045Z,3.43
2019-02-24T12:14:42.156Z,3.83
2019-02-24T12:17:11.120Z,4.70
2019-02-24T12:19:39.866Z,4.43
2019-02-24T12:22:08.752Z,5.03
2019-02-24T12:24:37.534Z,4.97
2019-02-24T12:27:06.426Z,4.43
2019-02-24T12:29:35.325Z,4.20
2019-02-24T12:32:07.344Z,3.90
2019-02-24T12:34:37.565Z,4.37
2019-02-24T12:37:06.493Z,4.00
2019-02-24T12:39:35.317Z,3.77
2019-02-24T12:42:04.413Z,4.70
2019-02-24T12:44:33.588Z,3.73
2019-02-24T12:47:02.535Z,4.00
2019-02-24T12:49:31.432Z,4.57
2019-02-24T12:52:00.259Z,4.03
2019-02-24T12:54:29.232Z,4.00
2019-02-24T12:56:58.115Z,4.13
2019-02-24T12:59:26.866Z,5.00
2019-02-24T13:01:55.760Z,4.47
2019-02-24T13:04:24.562Z,4.17
2019-02-24T13:06:53.445Z,4.80
2019-02-24T13:09:22.340Z,4.20
2019-02-24T13:11:51.253Z,3.87
2019-02-24T13:14:20.142Z,3.83
2019-02-24T13:16:52.668Z,4.37
2019-02-24T13:19:21.704Z,3.70
2019-02-24T13:21:50.826Z,3.33
2019-02-24T13:24:19.912Z,3.57
2019-02-24T13:26:49.125Z,3.90
2019-02-24T13:29:17.988Z,3.90
2019-02-24T13:31:47.646Z,4.63
2019-02-24T13:34:26.948Z,4.30
2019-02-24T13:36:56.073Z,3.87
2019-02-24T13:39:24.973Z,4.70
2019-02-24T13:41:53.855Z,5.53
2019-02-24T13:44:22.667Z,4.70
2019-02-24T13:46:59.462Z,4.60
2019-02-24T13:49:29.632Z,4.27
2019-02-24T13:51:58.492Z,4.93
2019-02-24T13:54:27.280Z,4.10
2019-02-24T13:56:56.067Z,3.63
2019-02-24T13:59:24.951Z,4.43
2019-02-24T14:01:53.762Z,4.30
2019-02-24T14:04:22.677Z,4.90
2019-02-24T14:06:51.643Z,4.60
2019-02-24T14:09:21.784Z,5.30
2019-02-24T14:11:50.722Z,4.80
2019-02-24T14:14:19.698Z,5.63
2019-02-24T14:16:48.560Z,5.50
2019-02-24T14:19:17.446Z,4.93
2019-02-24T14:21:46.386Z,4.90
2019-02-24T14:24:15.323Z,3.90
2019-02-24T14:26:44.148Z,5.13
2019-02-24T14:29:13.145Z,4.27
2019-02-24T14:31:41.956Z,4.27
2019-02-24T14:34:11.003Z,4.10
2019-02-24T14:36:40.010Z,3.87
2019-02-24T14:39:09.486Z,4.17
2019-02-24T14:41:38.388Z,3.87
2019-02-24T14:44:07.674Z,4.20
2019-02-24T14:46:36.541Z,4.20
2019-02-24T14:49:05.443Z,3.87
2019-02-24T14:51:34.528Z,4.00
2019-02-24T14:54:03.416Z,4.20
2019-02-24T14:56:32.280Z,4.27
2019-02-24T14:59:01.198Z,4.27
2019-02-24T15:01:30.062Z,5.07
2019-02-24T15:03:58.940Z,4.40
2019-02-24T15:06:27.811Z,4.10
2019-02-24T15:08:56.675Z,3.43
2019-02-24T15:11:25.469Z,3.80
2019-02-24T15:13:54.456Z,3.37
2019-02-24T15:16:23.642Z,3.37
2019-02-24T15:19:01.695Z,3.93
2019-02-24T15:21:30.608Z,4.33
2019-02-24T15:23:59.413Z,4.00
2019-02-24T15:26:29.353Z,4.50
2019-02-24T15:28:58.434Z,4.30
2019-02-24T15:31:27.234Z,3.97
2019-02-24T15:33:56.102Z,3.90
2019-02-24T15:36:24.881Z,4.00
2019-02-24T15:38:53.721Z,4.70
2019-02-24T15:41:29.829Z,4.03
2019-02-24T15:43:54.144Z,4.17
2019-02-24T15:46:23.079Z,5.13
2019-02-24T15:48:52.256Z,4.20
2019-02-24T15:51:21.107Z,4.27
2019-02-24T15:53:49.931Z,3.70
2019-02-24T15:56:19.254Z,3.10
2019-02-24T15:58:48.063Z,3.27
2019-02-24T16:01:16.940Z,4.20
2019-02-24T16:03:45.723Z,3.63
2019-02-24T16:06:14.502Z,4.03
2019-02-24T16:08:43.411Z,5.00
2019-02-24T16:11:12.193Z,3.83
2019-02-24T16:13:41.083Z,4.27
2019-02-24T16:16:10.242Z,5.50
2019-02-24T16:18:40.648Z,5.53
2019-02-24T16:21:09.707Z,6.20
2019-02-24T16:23:38.491Z,6.07
2019-02-24T16:26:07.422Z,5.13
2019-02-24T16:28:36.200Z,3.87
2019-02-24T16:31:05.343Z,4.63
2019-02-24T16:33:34.170Z,4.47
2019-02-24T16:36:03.015Z,4.13
2019-02-24T16:38:33.834Z,4.00
2019-02-24T16:41:02.611Z,4.33
2019-02-24T16:43:31.526Z,3.80
2019-02-24T16:46:00.322Z,3.67
2019-02-24T16:48:29.337Z,4.47
2019-02-24T16:50:59.643Z,4.00
2019-02-24T16:53:28.413Z,4.47
2019-02-24T16:55:57.480Z,4.47
2019-02-24T16:58:26.344Z,4.50
2019-02-24T17:00:55.972Z,4.50
2019-02-24T17:03:24.749Z,5.33
2019-02-24T17:05:53.714Z,4.27
2019-02-24T17:08:22.892Z,5.10
2019-02-24T17:10:51.921Z,5.03
2019-02-24T17:13:23.795Z,4.53
2019-02-24T17:15:52.663Z,4.67
2019-02-24T17:18:21.574Z,6.10
2019-02-24T17:20:51.665Z,6.00
2019-02-24T17:23:21.031Z,6.37
2019-02-24T17:25:50.170Z,11.90
2019-02-24T17:28:19.083Z,9.20
2019-02-24T17:30:48.124Z,11.03
2019-02-24T17:33:17.151Z,9.67
2019-02-24T17:35:46.681Z,10.73
2019-02-24T17:38:15.650Z,8.40
2019-02-24T17:40:44.723Z,7.97
2019-02-24T17:43:13.675Z,7.53
2019-02-24T17:45:44.916Z,7.80
2019-02-24T17:48:14.013Z,9.10
2019-02-24T17:50:43.050Z,7.53
2019-02-24T17:53:11.921Z,7.90
2019-02-24T17:55:41.280Z,7.60
2019-02-24T17:58:16.379Z,7.80
2019-02-24T18:00:55.285Z,8.80
2019-02-24T18:03:24.148Z,8.83
2019-02-24T18:05:56.226Z,8.97
2019-02-24T18:08:28.181Z,8.30
2019-02-24T18:10:58.912Z,8.97
2019-02-24T18:13:27.990Z,8.90
2019-02-24T18:15:57.018Z,8.47
2019-02-24T18:18:26.164Z,7.07
2019-02-24T18:20:55.089Z,9.90
2019-02-24T18:23:24.261Z,8.63
2019-02-24T18:25:53.193Z,8.10
2019-02-24T18:28:22.097Z,6.70
2019-02-24T18:30:51.014Z,9.07
2019-02-24T18:33:20.159Z,11.47
2019-02-24T18:35:50.021Z,10.43
2019-02-24T18:38:18.879Z,9.53
2019-02-24T18:40:47.742Z,10.10
2019-02-24T18:43:16.560Z,8.67
2019-02-24T18:45:45.547Z,9.77
2019-02-24T18:48:16.589Z,8.30
2019-02-24T18:50:45.482Z,9.43
2019-02-24T18:53:23.755Z,9.00
2019-02-24T18:55:55.447Z,9.70
2019-02-24T18:58:33.536Z,8.80
2019-02-24T19:01:09.234Z,9.33
2019-02-24T19:03:42.204Z,6.77
2019-02-24T19:06:15.546Z,9.07
2019-02-24T19:08:44.587Z,8.60
2019-02-24T19:11:13.567Z,10.10
2019-02-24T19:13:44.291Z,8.97
2019-02-24T19:16:13.413Z,8.17
2019-02-24T19:18:42.393Z,9.50
2019-02-24T19:21:13.670Z,8.17
2019-02-24T19:23:42.855Z,8.07
2019-02-24T19:26:11.778Z,8.30
2019-02-24T19:28:40.827Z,7.23
2019-02-24T19:31:10.080Z,6.33
2019-02-24T19:33:39.615Z,8.17
2019-02-24T19:36:08.567Z,8.17
2019-02-24T19:38:37.567Z,8.13
2019-02-24T19:41:06.594Z,8.40
2019-02-24T19:43:35.674Z,8.80
2019-02-24T19:46:05.391Z,8.63
2019-02-24T19:48:41.755Z,9.50
2019-02-24T19:51:05.119Z,10.33
2019-02-24T19:53:34.029Z,10.97
2019-02-24T19:56:02.929Z,11.20
2019-02-24T19:58:31.833Z,10.40
2019-02-24T20:01:01.636Z,11.23
2019-02-24T20:03:33.661Z,10.80
2019-02-24T20:06:02.659Z,10.50
2019-02-24T20:08:33.591Z,10.73
2019-02-24T20:11:02.404Z,11.13
2019-02-24T20:13:31.457Z,10.23
2019-02-24T20:16:00.355Z,11.40
2019-02-24T20:18:29.361Z,8.83
2019-02-24T20:21:00.353Z,11.20
2019-02-24T20:23:38.963Z,9.00
2019-02-24T20:26:09.235Z,9.97
2019-02-24T20:28:40.050Z,9.90
2019-02-24T20:31:09.190Z,8.90
2019-02-24T20:33:38.480Z,8.97
2019-02-24T20:36:07.487Z,10.07
2019-02-24T20:38:36.496Z,9.83
2019-02-24T20:41:05.688Z,9.40
2019-02-24T20:43:35.984Z,11.20
2019-02-24T20:46:05.205Z,8.83
2019-02-24T20:48:36.737Z,10.97
2019-02-24T20:51:05.821Z,10.00
2019-02-24T20:53:35.005Z,9.57
2019-02-24T20:56:04.293Z,10.30
2019-02-24T20:58:33.277Z,11.03
2019-02-24T21:01:02.357Z,8.30
2019-02-24T21:03:31.431Z,9.93
2019-02-24T21:06:00.396Z,9.63
2019-02-24T21:08:31.465Z,8.13
2019-02-24T21:11:00.475Z,8.60
2019-02-24T21:13:31.555Z,8.27
2019-02-24T21:16:01.534Z,13.90
2019-02-24T21:18:30.621Z,9.00
2019-02-24T21:21:02.545Z,8.97
2019-02-24T21:23:32.931Z,10.17
2019-02-24T21:26:04.898Z,7.70
2019-02-24T21:28:35.871Z,9.60
2019-02-24T21:31:05.447Z,9.60
2019-02-24T21:33:34.900Z,8.57
2019-02-24T21:36:04.212Z,9.40
2019-02-24T21:38:33.380Z,9.33
2019-02-24T21:41:03.165Z,9.30
2019-02-24T21:43:32.695Z,9.63
2019-02-24T21:46:04.460Z,10.37
2019-02-24T21:48:33.898Z,9.67
2019-02-24T21:51:02.714Z,9.80
2019-02-24T21:53:34.479Z,9.53
2019-02-24T21:56:08.942Z,10.20
2019-02-24T21:58:44.066Z,12.63
2019-02-24T22:01:17.656Z,9.93
2019-02-24T22:03:46.738Z,10.27
2019-02-24T22:06:15.883Z,10.50
2019-02-24T22:08:45.207Z,11.10
2019-02-24T22:11:14.222Z,9.63
2019-02-24T22:13:43.326Z,10.07
2019-02-24T22:16:12.368Z,11.43
2019-02-24T22:18:43.975Z,10.60
2019-02-24T22:21:13.108Z,11.40
2019-02-24T22:23:44.926Z,12.70
2019-02-24T22:26:19.160Z,12.23
2019-02-24T22:28:48.467Z,11.03
2019-02-24T22:31:18.368Z,11.40
2019-02-24T22:33:47.680Z,12.67
2019-02-24T22:36:19.154Z,10.97
2019-02-24T22:38:53.147Z,10.77
2019-02-24T22:41:26.050Z,11.03
2019-02-24T22:44:01.994Z,11.67
2019-02-24T22:46:31.016Z,11.17
2019-02-24T22:48:59.966Z,11.40
2019-02-24T22:51:37.742Z,11.40
2019-02-24T22:54:07.230Z,11.47
2019-02-24T22:56:36.205Z,11.10
2019-02-24T22:59:06.629Z,10.63
2019-02-24T23:01:40.473Z,11.63
2019-02-24T23:04:17.034Z,11.73
2019-02-24T23:06:50.522Z,9.97
2019-02-24T23:09:21.366Z,11.87
2019-02-24T23:11:50.469Z,11.57
2019-02-24T23:14:19.268Z,10.80
2019-02-24T23:16:48.086Z,9.77
2019-02-24T23:19:17.331Z,11.50
2019-02-24T23:21:51.418Z,12.27
2019-02-24T23:24:25.595Z,10.17
2019-02-24T23:26:54.764Z,11.47
2019-02-24T23:29:23.619Z,11.60
2019-02-24T23:31:52.494Z,9.30
2019-02-24T23:34:21.340Z,10.67
2019-02-24T23:36:50.270Z,10.30
2019-02-24T23:39:19.262Z,9.53
2019-02-24T23:41:48.032Z,11.37
2019-02-24T23:44:16.844Z,9.77
2019-02-24T23:46:48.759Z,10.53
2019-02-24T23:49:17.684Z,9.90
2019-02-24T23:51:48.379Z,10.00
2019-02-24T23:54:18.077Z,10.87
2019-02-24T23:56:48.693Z,10.77
2019-02-24T23:59:17.506Z,11.93
